Cape Cottage, Maine
Current Conditions -  °F | °C
As of 10:51 AM on Friday 28 Nov 2014 (Local Time) from KPWM Reporting Station
Broken Clouds Broken Clouds  
Wind Chill: 22°   Ceiling: 5500
Heat Index: 28°   Visibility: 10mi
Dew Point: 21°   Wind: 6mph
Humidity: 75%   Direction: 350°N
Pressure: 30.06"   Gusts: NA
Location:  43.5903°N, 70.2379°W
Report Text: KPWM 281551Z 35005KT 10SM FEW047 BKN055 M02/M06 A3006 RMK AO2 SNE33 SLP179 P0000 T10221061
Loading
Personal Weather Stations






























Interactive Weather Map New forecast layout! Learn more

10-Day Weather Forecast

Advertisements
Track Severe Weather on mobile